sensor_id;sensor_type;location;lat;lon;timestamp;pressure;altitude;pressure_sealevel;temperature;humidity
76973;BME280;65907;53.640;10.050;2023-08-06T00:00:26;100143.81;;;25.09;44.50
76973;BME280;65907;53.640;10.050;2023-08-06T00:02:51;100140.84;;;25.12;44.45
76973;BME280;65907;53.640;10.050;2023-08-06T00:05:17;100145.31;;;25.11;44.38
76973;BME280;65907;53.640;10.050;2023-08-06T00:07:48;100145.31;;;25.11;44.44
76973;BME280;65907;53.640;10.050;2023-08-06T00:10:14;100141.19;;;25.09;44.53
76973;BME280;65907;53.640;10.050;2023-08-06T00:12:39;100137.56;;;25.10;44.48
76973;BME280;65907;53.640;10.050;2023-08-06T00:15:04;100129.69;;;25.10;44.62
76973;BME280;65907;53.640;10.050;2023-08-06T00:17:30;100131.66;;;25.08;44.57
76973;BME280;65907;53.640;10.050;2023-08-06T00:19:55;100123.63;;;25.09;44.53
76973;BME280;65907;53.640;10.050;2023-08-06T00:22:20;100123.09;;;25.14;44.40
76973;BME280;65907;53.640;10.050;2023-08-06T00:24:45;100126.72;;;25.13;44.51
76973;BME280;65907;53.640;10.050;2023-08-06T00:27:13;100127.06;;;25.10;44.67
76973;BME280;65907;53.640;10.050;2023-08-06T00:29:38;100121.44;;;25.13;44.55
76973;BME280;65907;53.640;10.050;2023-08-06T00:32:03;100110.78;;;25.14;44.48
76973;BME280;65907;53.640;10.050;2023-08-06T00:34:29;100106.19;;;25.08;44.56
76973;BME280;65907;53.640;10.050;2023-08-06T00:36:56;100115.72;;;25.09;44.51
76973;BME280;65907;53.640;10.050;2023-08-06T00:39:21;100104.72;;;25.05;44.54
76973;BME280;65907;53.640;10.050;2023-08-06T00:41:46;100105.56;;;25.06;44.64
76973;BME280;65907;53.640;10.050;2023-08-06T00:44:12;100104.38;;;25.09;44.63
76973;BME280;65907;53.640;10.050;2023-08-06T00:46:37;100091.75;;;25.04;44.71
76973;BME280;65907;53.640;10.050;2023-08-06T00:49:03;100087.78;;;25.00;44.63
76973;BME280;65907;53.640;10.050;2023-08-06T00:51:29;100078.91;;;25.01;44.78
76973;BME280;65907;53.640;10.050;2023-08-06T00:53:54;100076.78;;;25.04;44.65
76973;BME280;65907;53.640;10.050;2023-08-06T00:56:20;100067.88;;;25.05;44.47
76973;BME280;65907;53.640;10.050;2023-08-06T00:58:46;100062.63;;;25.05;44.61
76973;BME280;65907;53.640;10.050;2023-08-06T01:01:11;100059.19;;;25.05;44.64
76973;BME280;65907;53.640;10.050;2023-08-06T01:03:36;100058.56;;;25.03;44.66
76973;BME280;65907;53.640;10.050;2023-08-06T01:06:02;100057.22;;;25.07;44.57
76973;BME280;65907;53.640;10.050;2023-08-06T01:13:26;100044.56;;;25.02;44.75
76973;BME280;65907;53.640;10.050;2023-08-06T01:15:57;100049.19;;;25.00;44.74
76973;BME280;65907;53.640;10.050;2023-08-06T01:18:23;100041.59;;;25.05;44.65
76973;BME280;65907;53.640;10.050;2023-08-06T01:20:48;100045.41;;;25.03;44.55
76973;BME280;65907;53.640;10.050;2023-08-06T01:23:14;100037.50;;;25.03;44.67
76973;BME280;65907;53.640;10.050;2023-08-06T01:25:56;100043.56;;;25.03;44.51
76973;BME280;65907;53.640;10.050;2023-08-06T01:28:27;100040.31;;;25.01;44.57
76973;BME280;65907;53.640;10.050;2023-08-06T01:30:55;100040.13;;;25.03;44.49
76973;BME280;65907;53.640;10.050;2023-08-06T01:33:24;100040.88;;;25.12;44.40
76973;BME280;65907;53.640;10.050;2023-08-06T01:35:50;100033.41;;;25.00;44.74
76973;BME280;65907;53.640;10.050;2023-08-06T01:38:16;100039.31;;;25.02;44.63
76973;BME280;65907;53.640;10.050;2023-08-06T01:40:41;100026.31;;;25.01;44.58
76973;BME280;65907;53.640;10.050;2023-08-06T01:43:07;100034.03;;;25.02;44.75
76973;BME280;65907;53.640;10.050;2023-08-06T01:45:32;100026.81;;;25.04;44.58
76973;BME280;65907;53.640;10.050;2023-08-06T01:47:57;100018.25;;;25.02;44.53
76973;BME280;65907;53.640;10.050;2023-08-06T01:50:22;100018.25;;;25.02;44.45
76973;BME280;65907;53.640;10.050;2023-08-06T01:52:50;100013.16;;;25.01;44.68
76973;BME280;65907;53.640;10.050;2023-08-06T01:55:15;100016.63;;;25.01;44.62
76973;BME280;65907;53.640;10.050;2023-08-06T01:57:40;100005.47;;;24.99;44.73
76973;BME280;65907;53.640;10.050;2023-08-06T02:00:06;100004.59;;;25.07;44.49
76973;BME280;65907;53.640;10.050;2023-08-06T02:02:34;100003.81;;;24.98;44.73
76973;BME280;65907;53.640;10.050;2023-08-06T02:04:59;100005.63;;;24.98;44.62
76973;BME280;65907;53.640;10.050;2023-08-06T02:07:24;100009.09;;;24.98;44.67
76973;BME280;65907;53.640;10.050;2023-08-06T02:09:49;100011.22;;;25.03;44.53
76973;BME280;65907;53.640;10.050;2023-08-06T02:12:15;100002.47;;;25.02;44.61
76973;BME280;65907;53.640;10.050;2023-08-06T02:14:40;100006.59;;;25.05;44.60
76973;BME280;65907;53.640;10.050;2023-08-06T02:17:05;100012.50;;;25.07;44.65
76973;BME280;65907;53.640;10.050;2023-08-06T02:19:30;100017.78;;;24.99;44.50
76973;BME280;65907;53.640;10.050;2023-08-06T02:21:56;100010.84;;;25.06;44.55
76973;BME280;65907;53.640;10.050;2023-08-06T02:24:21;100009.53;;;25.02;44.57
76973;BME280;65907;53.640;10.050;2023-08-06T02:26:46;100007.25;;;24.99;44.34
76973;BME280;65907;53.640;10.050;2023-08-06T02:29:16;100000.72;;;24.95;44.70
76973;BME280;65907;53.640;10.050;2023-08-06T02:31:41;100007.25;;;24.99;44.53
76973;BME280;65907;53.640;10.050;2023-08-06T02:34:08;100000.00;;;25.01;44.46
76973;BME280;65907;53.640;10.050;2023-08-06T02:36:34;100001.00;;;25.00;44.68
76973;BME280;65907;53.640;10.050;2023-08-06T02:38:59;99998.69;;;25.05;44.54
76973;BME280;65907;53.640;10.050;2023-08-06T02:41:24;99995.06;;;25.06;44.50
76973;BME280;65907;53.640;10.050;2023-08-06T02:43:49;99994.47;;;24.96;45.01
76973;BME280;65907;53.640;10.050;2023-08-06T02:46:14;99985.06;;;25.01;44.34
76973;BME280;65907;53.640;10.050;2023-08-06T02:48:40;99983.06;;;25.03;44.36
76973;BME280;65907;53.640;10.050;2023-08-06T02:51:05;99979.09;;;25.08;44.55
76973;BME280;65907;53.640;10.050;2023-08-06T02:53:30;99977.81;;;25.03;44.67
76973;BME280;65907;53.640;10.050;2023-08-06T02:55:56;99970.09;;;25.02;44.61
76973;BME280;65907;53.640;10.050;2023-08-06T02:58:21;99976.69;;;24.98;44.63
76973;BME280;65907;53.640;10.050;2023-08-06T03:00:58;99963.38;;;24.99;44.82
76973;BME280;65907;53.640;10.050;2023-08-06T03:03:26;99959.28;;;24.97;44.72
76973;BME280;65907;53.640;10.050;2023-08-06T03:05:52;99954.00;;;24.97;44.83
76973;BME280;65907;53.640;10.050;2023-08-06T03:08:18;99956.50;;;24.98;44.58
76973;BME280;65907;53.640;10.050;2023-08-06T03:10:47;99952.03;;;24.99;44.57
76973;BME280;65907;53.640;10.050;2023-08-06T03:13:12;99953.38;;;24.95;44.65
76973;BME280;65907;53.640;10.050;2023-08-06T03:15:40;99945.31;;;24.96;44.51
76973;BME280;65907;53.640;10.050;2023-08-06T03:18:07;99933.81;;;24.97;44.57
76973;BME280;65907;53.640;10.050;2023-08-06T03:20:35;99934.63;;;24.98;44.63
76973;BME280;65907;53.640;10.050;2023-08-06T03:23:00;99929.53;;;24.96;44.72
76973;BME280;65907;53.640;10.050;2023-08-06T03:25:25;99929.91;;;24.93;44.78
76973;BME280;65907;53.640;10.050;2023-08-06T03:27:50;99924.56;;;25.01;44.64
76973;BME280;65907;53.640;10.050;2023-08-06T03:30:16;99924.28;;;24.96;44.70
76973;BME280;65907;53.640;10.050;2023-08-06T03:32:41;99924.44;;;24.95;44.67
76973;BME280;65907;53.640;10.050;2023-08-06T03:35:06;99927.72;;;24.97;44.69
76973;BME280;65907;53.640;10.050;2023-08-06T03:37:32;99920.53;;;24.90;44.77
76973;BME280;65907;53.640;10.050;2023-08-06T03:39:57;99919.53;;;24.91;44.89
76973;BME280;65907;53.640;10.050;2023-08-06T03:42:24;99908.03;;;24.92;44.85
76973;BME280;65907;53.640;10.050;2023-08-06T03:44:49;99911.13;;;24.96;44.69
76973;BME280;65907;53.640;10.050;2023-08-06T03:47:15;99912.13;;;24.95;44.61
76973;BME280;65907;53.640;10.050;2023-08-06T03:49:40;99906.03;;;24.95;44.65
76973;BME280;65907;53.640;10.050;2023-08-06T03:52:05;99914.56;;;24.97;44.69
76973;BME280;65907;53.640;10.050;2023-08-06T03:54:31;99912.56;;;24.99;44.53
76973;BME280;65907;53.640;10.050;2023-08-06T03:56:56;99911.50;;;24.93;44.54
76973;BME280;65907;53.640;10.050;2023-08-06T03:59:21;99908.16;;;24.99;44.49
76973;BME280;65907;53.640;10.050;2023-08-06T04:01:46;99899.97;;;24.94;44.45
76973;BME280;65907;53.640;10.050;2023-08-06T04:04:11;99897.00;;;24.97;44.56
76973;BME280;65907;53.640;10.050;2023-08-06T04:06:37;99894.06;;;24.92;44.71
76973;BME280;65907;53.640;10.050;2023-08-06T04:09:02;99891.25;;;24.94;44.64
76973;BME280;65907;53.640;10.050;2023-08-06T04:11:27;99887.47;;;24.96;44.56
76973;BME280;65907;53.640;10.050;2023-08-06T04:13:55;99887.28;;;24.98;44.47
76973;BME280;65907;53.640;10.050;2023-08-06T04:16:20;99890.78;;;24.90;44.50
76973;BME280;65907;53.640;10.050;2023-08-06T04:18:46;99889.09;;;24.97;44.60
76973;BME280;65907;53.640;10.050;2023-08-06T04:21:11;99887.63;;;24.95;44.57
76973;BME280;65907;53.640;10.050;2023-08-06T04:23:36;99884.47;;;24.99;44.50
76973;BME280;65907;53.640;10.050;2023-08-06T04:26:01;99898.22;;;24.86;44.63
76973;BME280;65907;53.640;10.050;2023-08-06T04:28:27;99892.53;;;24.98;44.42
76973;BME280;65907;53.640;10.050;2023-08-06T04:30:52;99898.66;;;24.90;44.58
76973;BME280;65907;53.640;10.050;2023-08-06T04:33:18;99900.13;;;24.92;44.71
76973;BME280;65907;53.640;10.050;2023-08-06T04:35:43;99894.88;;;24.92;44.62
76973;BME280;65907;53.640;10.050;2023-08-06T04:38:11;99894.88;;;24.92;44.66
76973;BME280;65907;53.640;10.050;2023-08-06T04:40:36;99893.38;;;24.98;44.42
76973;BME280;65907;53.640;10.050;2023-08-06T04:43:02;99894.06;;;24.92;44.77
76973;BME280;65907;53.640;10.050;2023-08-06T04:45:29;99891.91;;;24.96;44.54
76973;BME280;65907;53.640;10.050;2023-08-06T04:47:54;99895.34;;;24.96;44.57
76973;BME280;65907;53.640;10.050;2023-08-06T04:50:20;99904.59;;;24.92;44.62
76973;BME280;65907;53.640;10.050;2023-08-06T04:52:45;99898.63;;;24.98;44.57
76973;BME280;65907;53.640;10.050;2023-08-06T04:55:10;99905.03;;;24.96;44.63
76973;BME280;65907;53.640;10.050;2023-08-06T04:57:35;99899.44;;;24.99;44.49
76973;BME280;65907;53.640;10.050;2023-08-06T05:00:00;99898.91;;;25.03;44.20
76973;BME280;65907;53.640;10.050;2023-08-06T05:02:26;99897.00;;;24.97;44.23
76973;BME280;65907;53.640;10.050;2023-08-06T05:04:51;99901.91;;;25.00;44.49
76973;BME280;65907;53.640;10.050;2023-08-06T05:07:16;99904.59;;;24.92;44.72
76973;BME280;65907;53.640;10.050;2023-08-06T05:09:41;99902.88;;;24.99;44.58
76973;BME280;65907;53.640;10.050;2023-08-06T05:12:07;99910.50;;;24.94;44.70
76973;BME280;65907;53.640;10.050;2023-08-06T05:14:32;99898.91;;;25.03;44.44
76973;BME280;65907;53.640;10.050;2023-08-06T05:16:57;99894.16;;;24.99;44.63
76973;BME280;65907;53.640;10.050;2023-08-06T05:19:27;99902.06;;;24.99;44.52
76973;BME280;65907;53.640;10.050;2023-08-06T05:21:52;99906.31;;;25.00;44.50
76973;BME280;65907;53.640;10.050;2023-08-06T05:24:17;99903.09;;;25.13;44.37
76973;BME280;65907;53.640;10.050;2023-08-06T05:26:42;99906.41;;;25.15;44.14
76973;BME280;65907;53.640;10.050;2023-08-06T05:29:11;99908.09;;;25.08;44.29
76973;BME280;65907;53.640;10.050;2023-08-06T05:31:37;99920.50;;;25.22;44.22
76973;BME280;65907;53.640;10.050;2023-08-06T05:34:04;99916.22;;;25.21;44.11
76973;BME280;65907;53.640;10.050;2023-08-06T05:36:29;99905.06;;;25.19;44.20
76973;BME280;65907;53.640;10.050;2023-08-06T05:38:55;99912.94;;;25.19;44.20
76973;BME280;65907;53.640;10.050;2023-08-06T05:41:20;99905.69;;;25.21;44.30
76973;BME280;65907;53.640;10.050;2023-08-06T05:43:45;99906.22;;;25.16;44.27
76973;BME280;65907;53.640;10.050;2023-08-06T05:46:10;99904.59;;;25.15;44.30
76973;BME280;65907;53.640;10.050;2023-08-06T05:48:35;99903.78;;;25.15;44.33
76973;BME280;65907;53.640;10.050;2023-08-06T05:51:01;99909.19;;;25.13;44.40
76973;BME280;65907;53.640;10.050;2023-08-06T05:53:26;99908.09;;;25.31;43.95
76973;BME280;65907;53.640;10.050;2023-08-06T05:55:54;99913.78;;;25.34;43.92
76973;BME280;65907;53.640;10.050;2023-08-06T05:58:19;99912.28;;;25.40;43.86
76973;BME280;65907;53.640;10.050;2023-08-06T06:00:45;99910.09;;;25.29;43.84
76973;BME280;65907;53.640;10.050;2023-08-06T06:03:10;99910.59;;;25.47;43.58
76973;BME280;65907;53.640;10.050;2023-08-06T06:05:37;99904.44;;;25.55;43.52
76973;BME280;65907;53.640;10.050;2023-08-06T06:08:02;99912.41;;;25.47;43.48
76973;BME280;65907;53.640;10.050;2023-08-06T06:10:28;99910.00;;;25.37;43.88
76973;BME280;65907;53.640;10.050;2023-08-06T06:12:55;99905.09;;;25.34;44.07
76973;BME280;65907;53.640;10.050;2023-08-06T06:15:21;99899.72;;;25.27;43.97
76973;BME280;65907;53.640;10.050;2023-08-06T06:17:46;99904.91;;;25.35;43.92
76973;BME280;65907;53.640;10.050;2023-08-06T06:20:11;99898.72;;;25.28;44.13
76973;BME280;65907;53.640;10.050;2023-08-06T06:22:36;99895.69;;;25.40;43.76
76973;BME280;65907;53.640;10.050;2023-08-06T06:25:02;99890.06;;;25.43;43.98
76973;BME280;65907;53.640;10.050;2023-08-06T06:27:27;99892.34;;;25.46;43.82
76973;BME280;65907;53.640;10.050;2023-08-06T06:29:52;99891.41;;;25.39;43.88
76973;BME280;65907;53.640;10.050;2023-08-06T06:32:19;99874.53;;;25.33;43.99
76973;BME280;65907;53.640;10.050;2023-08-06T06:34:44;99880.13;;;25.30;44.06
76973;BME280;65907;53.640;10.050;2023-08-06T06:37:09;99870.69;;;25.35;43.78
76973;BME280;65907;53.640;10.050;2023-08-06T06:39:35;99879.69;;;25.41;43.92
76973;BME280;65907;53.640;10.050;2023-08-06T06:42:00;99878.34;;;25.45;43.55
76973;BME280;65907;53.640;10.050;2023-08-06T06:44:25;99880.53;;;25.42;43.77
76973;BME280;65907;53.640;10.050;2023-08-06T06:46:50;99879.69;;;25.50;43.68
76973;BME280;65907;53.640;10.050;2023-08-06T06:49:16;99875.50;;;25.55;43.54
76973;BME280;65907;53.640;10.050;2023-08-06T06:51:41;99876.59;;;25.61;43.53
76973;BME280;65907;53.640;10.050;2023-08-06T06:54:06;99880.34;;;25.67;43.56
76973;BME280;65907;53.640;10.050;2023-08-06T06:56:31;99877.34;;;25.70;43.36
76973;BME280;65907;53.640;10.050;2023-08-06T06:58:56;99872.59;;;25.80;43.08
76973;BME280;65907;53.640;10.050;2023-08-06T07:01:22;99866.28;;;25.74;43.18
76973;BME280;65907;53.640;10.050;2023-08-06T07:03:49;99864.06;;;25.78;42.99
76973;BME280;65907;53.640;10.050;2023-08-06T07:06:14;99870.06;;;25.87;43.10
76973;BME280;65907;53.640;10.050;2023-08-06T07:08:40;99871.53;;;25.89;42.89
76973;BME280;65907;53.640;10.050;2023-08-06T07:11:06;99867.53;;;25.79;43.20
76973;BME280;65907;53.640;10.050;2023-08-06T07:13:32;99871.69;;;25.73;43.31
76973;BME280;65907;53.640;10.050;2023-08-06T07:15:57;99868.28;;;25.72;43.31
76973;BME280;65907;53.640;10.050;2023-08-06T07:18:23;99858.78;;;25.93;42.91
76973;BME280;65907;53.640;10.050;2023-08-06T07:20:51;99867.69;;;25.92;42.92
76973;BME280;65907;53.640;10.050;2023-08-06T07:23:20;99866.63;;;25.86;43.22
76973;BME280;65907;53.640;10.050;2023-08-06T07:25:46;99865.06;;;25.92;43.06
76973;BME280;65907;53.640;10.050;2023-08-06T07:28:14;99865.63;;;26.02;42.86
76973;BME280;65907;53.640;10.050;2023-08-06T07:30:39;99868.78;;;25.98;42.94
76973;BME280;65907;53.640;10.050;2023-08-06T07:33:05;99861.53;;;26.00;42.85
76973;BME280;65907;53.640;10.050;2023-08-06T07:35:32;99856.59;;;26.12;42.63
76973;BME280;65907;53.640;10.050;2023-08-06T07:37:58;99855.91;;;26.18;42.56
76973;BME280;65907;53.640;10.050;2023-08-06T07:40:23;99856.91;;;26.17;42.52
76973;BME280;65907;53.640;10.050;2023-08-06T07:42:49;99856.19;;;26.23;42.42
76973;BME280;65907;53.640;10.050;2023-08-06T07:45:14;99860.19;;;26.19;42.58
76973;BME280;65907;53.640;10.050;2023-08-06T07:47:41;99861.47;;;26.23;42.62
76973;BME280;65907;53.640;10.050;2023-08-06T07:50:08;99862.25;;;26.24;42.44
76973;BME280;65907;53.640;10.050;2023-08-06T07:52:35;99859.34;;;26.33;42.39
76973;BME280;65907;53.640;10.050;2023-08-06T07:55:00;99868.63;;;26.29;42.47
76973;BME280;65907;53.640;10.050;2023-08-06T07:57:29;99861.44;;;26.08;42.97
76973;BME280;65907;53.640;10.050;2023-08-06T07:59:59;99867.06;;;26.05;43.05
76973;BME280;65907;53.640;10.050;2023-08-06T08:02:27;99862.06;;;26.10;42.94
76973;BME280;65907;53.640;10.050;2023-08-06T08:04:55;99863.50;;;26.13;42.72
76973;BME280;65907;53.640;10.050;2023-08-06T08:07:20;99861.25;;;26.10;42.86
76973;BME280;65907;53.640;10.050;2023-08-06T08:09:46;99854.44;;;26.15;42.98
76973;BME280;65907;53.640;10.050;2023-08-06T08:12:13;99848.72;;;26.27;42.55
76973;BME280;65907;53.640;10.050;2023-08-06T08:14:38;99856.72;;;26.18;42.60
76973;BME280;65907;53.640;10.050;2023-08-06T08:17:03;99853.72;;;26.22;42.81
76973;BME280;65907;53.640;10.050;2023-08-06T08:19:29;99842.81;;;26.25;42.55
76973;BME280;65907;53.640;10.050;2023-08-06T08:21:54;99858.19;;;26.21;42.64
76973;BME280;65907;53.640;10.050;2023-08-06T08:24:20;99845.53;;;26.31;42.60
76973;BME280;65907;53.640;10.050;2023-08-06T08:26:48;99843.34;;;26.35;42.49
76973;BME280;65907;53.640;10.050;2023-08-06T08:29:13;99846.69;;;26.29;42.47
76973;BME280;65907;53.640;10.050;2023-08-06T08:31:39;99847.91;;;26.26;42.82
76973;BME280;65907;53.640;10.050;2023-08-06T08:34:04;99841.19;;;26.24;42.52
76973;BME280;65907;53.640;10.050;2023-08-06T08:36:30;99856.91;;;26.17;42.82
76973;BME280;65907;53.640;10.050;2023-08-06T08:38:55;99848.28;;;26.23;42.55
76973;BME280;65907;53.640;10.050;2023-08-06T08:41:20;99850.34;;;26.28;42.57
76973;BME280;65907;53.640;10.050;2023-08-06T08:43:46;99845.66;;;26.23;42.84
76973;BME280;65907;53.640;10.050;2023-08-06T08:46:12;99855.97;;;26.25;42.56
76973;BME280;65907;53.640;10.050;2023-08-06T08:48:38;99845.91;;;26.28;42.57
76973;BME280;65907;53.640;10.050;2023-08-06T08:51:04;99845.28;;;26.26;42.59
76973;BME280;65907;53.640;10.050;2023-08-06T08:53:29;99852.34;;;26.26;42.72
76973;BME280;65907;53.640;10.050;2023-08-06T08:55:55;99841.72;;;26.34;42.64
76973;BME280;65907;53.640;10.050;2023-08-06T08:58:20;99850.63;;;26.18;42.72
76973;BME280;65907;53.640;10.050;2023-08-06T09:00:46;99841.81;;;26.26;42.64
76973;BME280;65907;53.640;10.050;2023-08-06T09:03:13;99846.69;;;26.29;42.78
76973;BME280;65907;53.640;10.050;2023-08-06T09:05:39;99837.81;;;26.30;42.81
76973;BME280;65907;53.640;10.050;2023-08-06T09:08:11;99832.19;;;26.33;42.51
76973;BME280;65907;53.640;10.050;2023-08-06T09:10:36;99829.47;;;26.26;42.72
76973;BME280;65907;53.640;10.050;2023-08-06T09:13:03;99839.72;;;26.36;42.38
76973;BME280;65907;53.640;10.050;2023-08-06T09:15:29;99831.19;;;26.34;42.52
76973;BME280;65907;53.640;10.050;2023-08-06T09:17:55;99829.72;;;26.31;42.74
76973;BME280;65907;53.640;10.050;2023-08-06T09:20:20;99827.19;;;26.23;42.81
76973;BME280;65907;53.640;10.050;2023-08-06T09:22:46;99822.56;;;26.25;42.60
76973;BME280;65907;53.640;10.050;2023-08-06T09:25:13;99832.09;;;26.26;42.82
76973;BME280;65907;53.640;10.050;2023-08-06T09:27:49;99823.28;;;26.34;42.45
76973;BME280;65907;53.640;10.050;2023-08-06T09:30:19;99824.91;;;26.35;42.46
76973;BME280;65907;53.640;10.050;2023-08-06T09:32:53;99823.31;;;26.19;42.64
76973;BME280;65907;53.640;10.050;2023-08-06T09:35:21;99826.47;;;26.14;43.07
76973;BME280;65907;53.640;10.050;2023-08-06T09:37:46;99836.75;;;26.09;43.13
76973;BME280;65907;53.640;10.050;2023-08-06T09:42:49;99823.72;;;26.23;42.69
76973;BME280;65907;53.640;10.050;2023-08-06T09:45:16;99818.53;;;26.29;42.70
76973;BME280;65907;53.640;10.050;2023-08-06T09:47:41;99821.06;;;26.38;42.51
76973;BME280;65907;53.640;10.050;2023-08-06T09:50:14;99822.06;;;26.37;42.36
76973;BME280;65907;53.640;10.050;2023-08-06T09:52:40;99824.44;;;26.31;42.62
76973;BME280;65907;53.640;10.050;2023-08-06T09:55:06;99813.09;;;26.31;42.63
76973;BME280;65907;53.640;10.050;2023-08-06T09:57:32;99816.63;;;26.38;42.33
76973;BME280;65907;53.640;10.050;2023-08-06T09:59:57;99813.44;;;26.28;42.72
76973;BME280;65907;53.640;10.050;2023-08-06T10:02:22;99809.19;;;26.12;43.13
76973;BME280;65907;53.640;10.050;2023-08-06T10:04:49;99813.03;;;26.09;43.12
76973;BME280;65907;53.640;10.050;2023-08-06T10:07:15;99806.47;;;26.05;43.17
76973;BME280;65907;53.640;10.050;2023-08-06T10:09:46;99805.66;;;26.04;43.15
76973;BME280;65907;53.640;10.050;2023-08-06T10:12:15;99801.66;;;26.09;43.09
76973;BME280;65907;53.640;10.050;2023-08-06T10:14:43;99800.56;;;26.18;42.88
76973;BME280;65907;53.640;10.050;2023-08-06T10:17:09;99794.63;;;26.16;42.95
76973;BME280;65907;53.640;10.050;2023-08-06T10:19:35;99802.03;;;26.20;42.70
76973;BME280;65907;53.640;10.050;2023-08-06T10:22:10;99800.28;;;26.13;42.95
76973;BME280;65907;53.640;10.050;2023-08-06T10:27:10;99790.47;;;26.22;42.91
76973;BME280;65907;53.640;10.050;2023-08-06T10:29:36;99786.22;;;26.20;43.03
76973;BME280;65907;53.640;10.050;2023-08-06T10:32:02;99783.97;;;26.17;42.76
76973;BME280;65907;53.640;10.050;2023-08-06T10:37:11;99783.31;;;26.15;43.12
76973;BME280;65907;53.640;10.050;2023-08-06T10:39:36;99772.75;;;26.15;42.81
76973;BME280;65907;53.640;10.050;2023-08-06T10:42:01;99774.03;;;26.19;42.82
76973;BME280;65907;53.640;10.050;2023-08-06T10:44:27;99780.66;;;26.15;42.94
76973;BME280;65907;53.640;10.050;2023-08-06T10:46:52;99778.03;;;26.15;42.78
76973;BME280;65907;53.640;10.050;2023-08-06T10:49:17;99774.94;;;26.27;42.46
76973;BME280;65907;53.640;10.050;2023-08-06T10:51:47;99781.03;;;26.12;42.99
76973;BME280;65907;53.640;10.050;2023-08-06T10:54:13;99775.69;;;26.20;42.91
76973;BME280;65907;53.640;10.050;2023-08-06T10:56:41;99775.94;;;26.11;42.94
76973;BME280;65907;53.640;10.050;2023-08-06T10:59:09;99772.75;;;26.15;42.83
76973;BME280;65907;53.640;10.050;2023-08-06T11:01:35;99775.53;;;26.07;42.99
76973;BME280;65907;53.640;10.050;2023-08-06T11:04:01;99773.84;;;26.06;43.14
76973;BME280;65907;53.640;10.050;2023-08-06T11:06:27;99768.41;;;26.08;43.16
76973;BME280;65907;53.640;10.050;2023-08-06T11:08:53;99753.44;;;26.08;42.93
76973;BME280;65907;53.640;10.050;2023-08-06T11:11:20;99749.34;;;26.05;43.13
76973;BME280;65907;53.640;10.050;2023-08-06T11:13:46;99750.06;;;26.14;42.92
76973;BME280;65907;53.640;10.050;2023-08-06T11:16:12;99750.44;;;26.11;42.95
76973;BME280;65907;53.640;10.050;2023-08-06T11:18:39;99755.78;;;26.03;43.10
76973;BME280;65907;53.640;10.050;2023-08-06T11:21:05;99753.06;;;26.11;43.09
76973;BME280;65907;53.640;10.050;2023-08-06T11:23:30;99750.72;;;26.16;42.71
76973;BME280;65907;53.640;10.050;2023-08-06T11:25:58;99745.97;;;26.12;42.83
76973;BME280;65907;53.640;10.050;2023-08-06T11:28:23;99746.41;;;26.15;42.65
76973;BME280;65907;53.640;10.050;2023-08-06T11:30:52;99745.59;;;26.15;42.87
76973;BME280;65907;53.640;10.050;2023-08-06T11:33:23;99736.44;;;26.11;43.00
76973;BME280;65907;53.640;10.050;2023-08-06T11:35:52;99732.72;;;26.20;42.61
76973;BME280;65907;53.640;10.050;2023-08-06T11:38:18;99738.97;;;26.04;43.23
76973;BME280;65907;53.640;10.050;2023-08-06T11:40:44;99725.09;;;26.10;42.96
76973;BME280;65907;53.640;10.050;2023-08-06T11:43:10;99727.91;;;26.09;42.68
76973;BME280;65907;53.640;10.050;2023-08-06T11:45:35;99727.72;;;26.10;42.94
76973;BME280;65907;53.640;10.050;2023-08-06T11:48:00;99728.78;;;26.16;42.84
76973;BME280;65907;53.640;10.050;2023-08-06T11:50:26;99726.00;;;26.17;42.71
76973;BME280;65907;53.640;10.050;2023-08-06T11:52:58;99724.47;;;26.08;43.01
76973;BME280;65907;53.640;10.050;2023-08-06T11:55:25;99721.25;;;26.13;42.88
76973;BME280;65907;53.640;10.050;2023-08-06T11:57:50;99727.72;;;26.10;42.85
76973;BME280;65907;53.640;10.050;2023-08-06T12:00:16;99731.34;;;26.09;42.95
76973;BME280;65907;53.640;10.050;2023-08-06T12:02:47;99725.88;;;26.11;43.06
76973;BME280;65907;53.640;10.050;2023-08-06T12:05:22;99720.75;;;26.02;43.23
76973;BME280;65907;53.640;10.050;2023-08-06T12:07:55;99722.44;;;26.10;42.75
76973;BME280;65907;53.640;10.050;2023-08-06T12:10:21;99712.28;;;26.07;43.02
76973;BME280;65907;53.640;10.050;2023-08-06T12:12:48;99713.66;;;26.03;43.04
76973;BME280;65907;53.640;10.050;2023-08-06T12:15:15;99712.00;;;26.02;43.13
76973;BME280;65907;53.640;10.050;2023-08-06T12:17:40;99707.03;;;26.07;43.14
76973;BME280;65907;53.640;10.050;2023-08-06T12:20:06;99714.47;;;26.03;42.99
76973;BME280;65907;53.640;10.050;2023-08-06T12:22:32;99711.72;;;26.12;42.90
76973;BME280;65907;53.640;10.050;2023-08-06T12:25:00;99704.31;;;26.00;42.93
76973;BME280;65907;53.640;10.050;2023-08-06T12:27:26;99710.00;;;26.04;43.14
76973;BME280;65907;53.640;10.050;2023-08-06T12:29:51;99699.28;;;26.05;42.97
76973;BME280;65907;53.640;10.050;2023-08-06T12:32:16;99703.38;;;26.08;43.03
76973;BME280;65907;53.640;10.050;2023-08-06T12:34:42;99701.22;;;25.97;43.19
76973;BME280;65907;53.640;10.050;2023-08-06T12:37:07;99704.31;;;26.00;43.16
76973;BME280;65907;53.640;10.050;2023-08-06T12:39:33;99709.00;;;26.05;43.11
76973;BME280;65907;53.640;10.050;2023-08-06T12:42:04;99716.66;;;26.00;43.02
76973;BME280;65907;53.640;10.050;2023-08-06T12:44:30;99711.75;;;25.97;43.04
76973;BME280;65907;53.640;10.050;2023-08-06T12:46:55;99713.00;;;26.01;43.13
76973;BME280;65907;53.640;10.050;2023-08-06T12:49:20;99708.88;;;25.91;43.44
76973;BME280;65907;53.640;10.050;2023-08-06T12:51:46;99710.84;;;26.04;42.92
76973;BME280;65907;53.640;10.050;2023-08-06T12:54:11;99705.50;;;25.98;42.95